Sherman Mills, Maine
Current Conditions -  °F | °C
As of 6:53 PM on Wednesday 28 Jan 2015 (Local Time) from KMLT Reporting Station
Clear Clear  
Wind Chill:   Ceiling: Unl
Heat Index: 18°   Visibility: 10mi
Dew Point:   Wind: 8mph
Humidity: 52%   Direction: 310°NW
Pressure: 30.01"   Gusts: NA
Location:  45.87°N, 68.39°W
Report Text: KMLT 282353Z AUTO 31007KT 10SM CLR M08/M16 A3001 RMK AO2 SLP177 60000 T10781161 11072 21083 51020
Loading
Personal Weather Stations






























Interactive Weather Map New forecast layout! Learn more

10-Day Weather Forecast

Advertisements
Track Severe Weather on mobile